createdAt,value
2022-10-22T00:00:20.145Z,14.70
2022-10-22T00:02:46.950Z,14.80
2022-10-22T00:05:13.760Z,14.80
2022-10-22T00:07:41.026Z,14.80
2022-10-22T00:10:08.741Z,14.80
2022-10-22T00:12:35.558Z,14.80
2022-10-22T00:15:03.291Z,14.80
2022-10-22T00:17:32.227Z,14.80
2022-10-22T00:19:59.007Z,14.80
2022-10-22T00:22:25.768Z,14.90
2022-10-22T00:25:02.418Z,14.90
2022-10-22T00:27:29.196Z,14.90
2022-10-22T00:29:55.999Z,14.90
2022-10-22T00:32:29.900Z,15.00
2022-10-22T00:34:56.750Z,14.90
2022-10-22T00:37:23.539Z,14.90
2022-10-22T00:39:51.486Z,15.00
2022-10-22T00:42:21.799Z,15.00
2022-10-22T00:45:06.371Z,15.00
2022-10-22T00:47:56.429Z,15.00
2022-10-22T00:50:58.913Z,15.00
2022-10-22T00:53:41.420Z,15.00
2022-10-22T00:56:09.701Z,15.10
2022-10-22T00:58:41.003Z,15.00
2022-10-22T01:01:12.423Z,15.00
2022-10-22T01:03:39.413Z,15.00
2022-10-22T01:06:06.803Z,15.00
2022-10-22T01:09:10.188Z,14.90
2022-10-22T01:11:59.480Z,14.90
2022-10-22T01:14:40.418Z,14.90
2022-10-22T01:17:32.070Z,14.90
2022-10-22T01:20:08.704Z,14.90
2022-10-22T01:23:03.000Z,14.90
2022-10-22T01:25:52.223Z,14.90
2022-10-22T01:28:40.541Z,14.90
2022-10-22T01:31:09.764Z,14.90
2022-10-22T01:33:37.002Z,14.90
2022-10-22T01:36:18.059Z,14.90
2022-10-22T01:38:46.812Z,14.90
2022-10-22T01:41:14.195Z,14.90
2022-10-22T01:43:41.015Z,14.90
2022-10-22T01:46:11.255Z,15.00
2022-10-22T01:48:56.023Z,15.00
2022-10-22T01:51:28.720Z,15.10
2022-10-22T01:54:01.247Z,15.10
2022-10-22T01:57:02.052Z,15.20
2022-10-22T01:59:58.594Z,15.20
2022-10-22T02:02:36.519Z,15.20
2022-10-22T02:05:15.489Z,15.20
2022-10-22T02:07:50.745Z,15.20
2022-10-22T02:10:19.440Z,15.20
2022-10-22T02:12:50.471Z,15.20
2022-10-22T02:15:20.343Z,15.20
2022-10-22T02:17:48.847Z,15.10
2022-10-22T02:20:29.594Z,15.10
2022-10-22T02:22:57.313Z,15.10
2022-10-22T02:25:27.607Z,15.10
2022-10-22T02:28:07.670Z,15.20
2022-10-22T02:30:36.964Z,15.20
2022-10-22T02:33:17.735Z,15.10
2022-10-22T02:35:45.263Z,15.10
2022-10-22T02:38:13.779Z,15.10
2022-10-22T02:40:43.703Z,15.00
2022-10-22T02:43:10.718Z,14.90
2022-10-22T02:45:38.847Z,14.90
2022-10-22T02:48:06.187Z,14.80
2022-10-22T02:50:33.081Z,14.80
2022-10-22T02:52:59.973Z,14.80
2022-10-22T02:55:26.739Z,14.90
2022-10-22T02:57:53.512Z,14.90
2022-10-22T03:00:20.730Z,14.90
2022-10-22T03:02:47.531Z,14.80
2022-10-22T03:05:14.415Z,14.80
2022-10-22T03:07:41.441Z,14.80
2022-10-22T03:10:09.040Z,14.80
2022-10-22T03:12:35.820Z,14.70
2022-10-22T03:15:02.647Z,14.70
2022-10-22T03:17:29.460Z,14.70
2022-10-22T03:19:56.266Z,14.70
2022-10-22T03:22:29.333Z,14.60
2022-10-22T03:25:00.661Z,14.60
2022-10-22T03:27:29.223Z,14.60
2022-10-22T03:29:58.022Z,14.60
2022-10-22T03:32:24.835Z,14.60
2022-10-22T03:35:01.343Z,14.70
2022-10-22T03:37:28.397Z,14.70
2022-10-22T03:39:55.689Z,14.60
2022-10-22T03:42:22.792Z,14.60
2022-10-22T03:44:49.925Z,14.60
2022-10-22T03:47:26.594Z,14.60
2022-10-22T03:50:00.363Z,14.60
2022-10-22T03:52:27.983Z,14.60
2022-10-22T03:54:54.734Z,14.60
2022-10-22T03:57:21.592Z,14.60
2022-10-22T03:59:55.381Z,14.50
2022-10-22T04:02:26.114Z,14.50
2022-10-22T04:04:52.921Z,14.50
2022-10-22T04:07:19.654Z,14.50
2022-10-22T04:09:46.559Z,14.50
2022-10-22T04:12:13.416Z,14.50
2022-10-22T04:14:47.344Z,14.50
2022-10-22T04:17:21.071Z,14.50
2022-10-22T04:19:47.817Z,14.50
2022-10-22T04:22:14.575Z,14.50
2022-10-22T04:24:41.321Z,14.50
2022-10-22T04:27:08.165Z,14.60
2022-10-22T04:29:34.984Z,14.60
2022-10-22T04:32:01.786Z,14.60
2022-10-22T04:34:29.275Z,14.70
2022-10-22T04:36:56.556Z,14.70
2022-10-22T04:39:23.535Z,14.80
2022-10-22T04:41:50.301Z,14.80
2022-10-22T04:44:17.878Z,14.90
2022-10-22T04:46:45.467Z,15.00
2022-10-22T04:49:12.342Z,15.00
2022-10-22T04:51:39.219Z,15.10
2022-10-22T04:54:06.346Z,15.10
2022-10-22T04:56:33.174Z,15.10
2022-10-22T04:59:03.048Z,15.20
2022-10-22T05:01:33.873Z,15.10
2022-10-22T05:04:02.557Z,15.10
2022-10-22T05:06:30.875Z,15.00
2022-10-22T05:09:01.485Z,15.00
2022-10-22T05:11:30.483Z,15.00
2022-10-22T05:13:58.839Z,14.90
2022-10-22T05:16:26.019Z,14.90
2022-10-22T05:18:57.883Z,14.90
2022-10-22T05:21:24.768Z,14.90
2022-10-22T05:23:51.783Z,14.80
2022-10-22T05:26:23.595Z,14.80
2022-10-22T05:28:51.118Z,14.80
2022-10-22T05:31:18.850Z,14.80
2022-10-22T05:33:47.472Z,14.90
2022-10-22T05:36:16.987Z,14.90
2022-10-22T05:38:44.171Z,14.90
2022-10-22T05:41:17.331Z,14.90
2022-10-22T05:43:44.789Z,14.80
2022-10-22T05:46:22.701Z,14.80
2022-10-22T05:48:51.666Z,14.80
2022-10-22T05:51:19.530Z,14.80
2022-10-22T05:53:47.007Z,14.80
2022-10-22T05:56:16.288Z,14.70
2022-10-22T05:58:44.519Z,14.60
2022-10-22T06:01:23.578Z,14.50
2022-10-22T06:03:54.317Z,14.40
2022-10-22T06:06:42.586Z,14.40
2022-10-22T06:09:20.775Z,14.40
2022-10-22T06:11:48.757Z,14.40
2022-10-22T06:14:16.314Z,14.50
2022-10-22T06:16:43.337Z,14.50
2022-10-22T06:19:12.230Z,14.60
2022-10-22T06:21:39.737Z,14.60
2022-10-22T06:24:13.203Z,14.60
2022-10-22T06:26:40.961Z,14.60
2022-10-22T06:29:08.568Z,14.50
2022-10-22T06:31:38.763Z,14.60
2022-10-22T06:34:14.047Z,14.60
2022-10-22T06:36:44.106Z,14.60
2022-10-22T06:39:16.633Z,14.70
2022-10-22T06:41:43.604Z,14.70
2022-10-22T06:44:18.235Z,14.80
2022-10-22T06:46:52.965Z,14.90
2022-10-22T06:49:27.000Z,14.90
2022-10-22T06:51:55.251Z,14.90
2022-10-22T06:54:23.084Z,14.90
2022-10-22T06:56:49.880Z,14.90
2022-10-22T06:59:16.665Z,14.90
2022-10-22T07:01:43.501Z,14.80
2022-10-22T07:04:11.089Z,14.80
2022-10-22T07:06:37.994Z,14.80
2022-10-22T07:09:04.863Z,14.80
2022-10-22T07:11:39.727Z,14.70
2022-10-22T07:14:06.511Z,14.70
2022-10-22T07:16:33.541Z,14.70
2022-10-22T07:19:02.079Z,14.60
2022-10-22T07:21:29.758Z,14.60
2022-10-22T07:23:56.981Z,14.70
2022-10-22T07:26:31.202Z,14.80
2022-10-22T07:28:59.412Z,14.80
2022-10-22T07:31:26.556Z,14.70
2022-10-22T07:33:53.500Z,14.80
2022-10-22T07:36:20.453Z,14.90
2022-10-22T07:38:49.229Z,14.90
2022-10-22T07:41:17.286Z,15.00
2022-10-22T07:43:44.310Z,15.00
2022-10-22T07:46:12.032Z,15.20
2022-10-22T07:48:39.164Z,15.20
2022-10-22T07:51:12.733Z,15.30
2022-10-22T07:53:39.602Z,15.40
2022-10-22T07:56:07.151Z,15.70
2022-10-22T07:58:34.317Z,15.90
2022-10-22T08:01:02.124Z,16.10
2022-10-22T08:03:29.423Z,16.30
2022-10-22T08:05:56.632Z,16.40
2022-10-22T08:08:27.058Z,16.40
2022-10-22T08:10:59.241Z,16.40
2022-10-22T08:13:27.661Z,16.30
2022-10-22T08:15:57.359Z,16.30
2022-10-22T08:18:25.064Z,16.30
2022-10-22T08:20:52.278Z,16.30
2022-10-22T08:23:21.192Z,16.20
2022-10-22T08:25:51.111Z,16.20
2022-10-22T08:28:21.163Z,16.20
2022-10-22T08:30:48.969Z,16.20
2022-10-22T08:33:16.019Z,16.10
2022-10-22T08:35:47.218Z,16.00
2022-10-22T08:38:13.952Z,16.00
2022-10-22T08:40:41.218Z,16.00
2022-10-22T08:43:35.926Z,15.90
2022-10-22T08:46:41.908Z,16.00
2022-10-22T08:49:34.304Z,15.90
2022-10-22T08:52:03.625Z,16.00
2022-10-22T08:54:56.167Z,16.00
2022-10-22T08:57:58.703Z,16.00
2022-10-22T09:00:37.309Z,16.00
2022-10-22T09:03:10.463Z,16.00
2022-10-22T09:05:58.928Z,16.10
2022-10-22T09:08:29.838Z,16.00
2022-10-22T09:11:25.599Z,16.00
2022-10-22T09:13:54.960Z,16.00
2022-10-22T09:16:33.650Z,16.00
2022-10-22T09:19:28.727Z,16.00
2022-10-22T09:22:30.583Z,16.00
2022-10-22T09:25:10.131Z,16.10
2022-10-22T09:27:37.212Z,16.20
2022-10-22T09:30:04.463Z,16.30
2022-10-22T09:32:33.403Z,16.40
2022-10-22T09:35:00.173Z,16.40
2022-10-22T09:37:29.247Z,16.40
2022-10-22T09:39:58.877Z,16.30
2022-10-22T09:42:25.868Z,16.40
2022-10-22T09:44:59.495Z,16.30
2022-10-22T09:47:43.371Z,16.30
2022-10-22T09:50:22.460Z,16.30
2022-10-22T09:52:58.910Z,16.40
2022-10-22T09:55:26.393Z,16.60
2022-10-22T09:57:55.349Z,16.60
2022-10-22T10:00:25.031Z,16.60
2022-10-22T10:02:57.364Z,16.90
2022-10-22T10:05:33.324Z,17.40
2022-10-22T10:08:12.075Z,18.30
2022-10-22T10:11:01.003Z,18.50
2022-10-22T10:13:42.776Z,18.50
2022-10-22T10:16:39.832Z,18.50
2022-10-22T10:19:20.355Z,18.70
2022-10-22T10:22:09.715Z,18.80
2022-10-22T10:25:03.677Z,18.70
2022-10-22T10:28:12.500Z,18.70
2022-10-22T10:31:03.206Z,18.60
2022-10-22T10:33:36.519Z,18.60
2022-10-22T10:36:39.153Z,18.40
2022-10-22T10:39:21.268Z,18.20
2022-10-22T10:42:20.270Z,18.00
2022-10-22T10:45:03.162Z,17.90
2022-10-22T10:47:32.893Z,17.70
2022-10-22T10:50:24.406Z,17.50
2022-10-22T10:53:20.555Z,17.40
2022-10-22T10:55:53.962Z,17.20
2022-10-22T10:58:38.906Z,17.10
2022-10-22T11:01:19.345Z,17.00
2022-10-22T11:03:48.956Z,16.90
2022-10-22T11:06:21.662Z,16.80
2022-10-22T11:09:28.781Z,16.80
2022-10-22T11:12:03.808Z,16.80
2022-10-22T11:14:35.963Z,16.70
2022-10-22T11:17:14.373Z,16.70
2022-10-22T11:19:53.833Z,16.80
2022-10-22T11:22:30.643Z,16.90
2022-10-22T11:25:12.662Z,17.00
2022-10-22T11:27:47.697Z,17.00
2022-10-22T11:30:18.565Z,16.90
2022-10-22T11:32:49.988Z,16.80
2022-10-22T11:35:25.815Z,16.90
2022-10-22T11:37:55.955Z,16.90
2022-10-22T11:40:34.244Z,17.10
2022-10-22T11:43:04.003Z,17.30
2022-10-22T11:45:42.271Z,17.80
2022-10-22T11:48:16.686Z,18.30
2022-10-22T11:51:00.026Z,18.70
2022-10-22T11:53:30.850Z,18.80
2022-10-22T11:56:18.541Z,18.90
2022-10-22T11:58:50.748Z,18.80
2022-10-22T12:01:26.720Z,18.80
2022-10-22T12:04:18.429Z,18.80
2022-10-22T12:06:57.656Z,18.90
2022-10-22T12:09:36.163Z,18.90
2022-10-22T12:12:12.477Z,18.90
2022-10-22T12:14:53.295Z,18.80
2022-10-22T12:17:22.429Z,18.80
2022-10-22T12:19:59.817Z,18.90
2022-10-22T12:22:33.972Z,19.00
2022-10-22T12:25:02.257Z,19.20
2022-10-22T12:27:36.726Z,19.30
2022-10-22T12:30:22.729Z,19.60
2022-10-22T12:32:53.919Z,19.70
2022-10-22T12:35:25.641Z,19.60
2022-10-22T12:37:55.983Z,19.50
2022-10-22T12:40:24.182Z,19.40
2022-10-22T12:42:59.734Z,19.30
2022-10-22T12:45:29.504Z,19.20
2022-10-22T12:47:58.794Z,19.10
2022-10-22T12:50:40.155Z,19.00
2022-10-22T12:53:15.950Z,18.90
2022-10-22T12:55:47.008Z,19.00
2022-10-22T12:58:18.859Z,19.00
2022-10-22T13:00:46.726Z,18.90
2022-10-22T13:03:45.264Z,18.90
2022-10-22T13:06:18.937Z,19.00
2022-10-22T13:09:01.480Z,19.20
2022-10-22T13:12:02.199Z,19.40
2022-10-22T13:14:34.609Z,19.40
2022-10-22T13:17:21.092Z,19.40
2022-10-22T13:19:53.715Z,19.40
2022-10-22T13:22:40.962Z,19.50
2022-10-22T13:25:17.273Z,19.60
2022-10-22T13:27:46.014Z,19.80
2022-10-22T13:30:36.032Z,20.00
2022-10-22T13:33:21.188Z,20.00
2022-10-22T13:35:48.034Z,19.90
2022-10-22T13:38:20.147Z,20.10
2022-10-22T13:40:47.536Z,20.20
2022-10-22T13:43:15.626Z,20.20
2022-10-22T13:45:47.843Z,20.00
2022-10-22T13:48:19.051Z,19.70
2022-10-22T13:50:46.334Z,19.40
2022-10-22T13:53:20.186Z,19.30
2022-10-22T13:55:47.565Z,19.10
2022-10-22T13:58:21.093Z,18.90
2022-10-22T14:00:51.471Z,18.70
2022-10-22T14:03:21.544Z,18.50
2022-10-22T14:05:49.221Z,18.30
2022-10-22T14:08:25.481Z,18.30
2022-10-22T14:10:52.870Z,18.20
2022-10-22T14:13:20.771Z,18.20
2022-10-22T14:15:50.467Z,18.20
2022-10-22T14:18:28.872Z,18.10
2022-10-22T14:20:58.231Z,18.20
2022-10-22T14:23:28.829Z,18.30
2022-10-22T14:25:56.595Z,18.40
2022-10-22T14:28:23.530Z,18.50
2022-10-22T14:30:51.142Z,18.50
2022-10-22T14:33:32.319Z,18.60
2022-10-22T14:36:00.717Z,18.70
2022-10-22T14:38:27.741Z,18.70
2022-10-22T14:40:54.880Z,18.70
2022-10-22T14:43:27.723Z,18.70
2022-10-22T14:46:02.492Z,18.70
2022-10-22T14:48:29.276Z,18.80
2022-10-22T14:50:56.023Z,18.80
2022-10-22T14:53:22.915Z,18.90
2022-10-22T14:55:51.427Z,18.90
2022-10-22T14:58:31.432Z,19.00
2022-10-22T15:01:03.501Z,19.10
2022-10-22T15:03:31.438Z,19.10
2022-10-22T15:05:58.334Z,19.10
2022-10-22T15:08:25.497Z,19.10
2022-10-22T15:11:04.036Z,19.10
2022-10-22T15:13:31.635Z,19.10
2022-10-22T15:15:59.122Z,19.10
2022-10-22T15:18:26.818Z,19.10
2022-10-22T15:21:12.793Z,19.00
2022-10-22T15:23:40.577Z,18.90
2022-10-22T15:26:08.818Z,18.80
2022-10-22T15:28:37.003Z,18.60
2022-10-22T15:31:04.368Z,18.50
2022-10-22T15:33:34.609Z,18.50
2022-10-22T15:36:11.444Z,18.30
2022-10-22T15:38:38.313Z,18.10
2022-10-22T15:41:06.984Z,17.90
2022-10-22T15:43:34.681Z,17.70
2022-10-22T15:46:17.199Z,17.60
2022-10-22T15:48:45.154Z,17.50
2022-10-22T15:51:14.619Z,17.30
2022-10-22T15:53:41.971Z,17.20
2022-10-22T15:56:09.765Z,17.10
2022-10-22T15:58:36.630Z,17.00
2022-10-22T16:01:08.474Z,16.90
2022-10-22T16:03:35.830Z,16.70
2022-10-22T16:06:03.467Z,16.60
2022-10-22T16:08:30.700Z,16.50
2022-10-22T16:10:58.475Z,16.50
2022-10-22T16:13:31.684Z,16.40
2022-10-22T16:15:58.455Z,16.30
2022-10-22T16:18:25.245Z,16.30
2022-10-22T16:20:52.094Z,16.30
2022-10-22T16:23:19.009Z,16.20
2022-10-22T16:25:58.580Z,16.10
2022-10-22T16:31:06.350Z,15.90
2022-10-22T16:33:41.298Z,15.80
2022-10-22T16:36:20.183Z,15.70
2022-10-22T16:38:53.327Z,15.60
2022-10-22T16:41:25.266Z,15.50
2022-10-22T16:43:55.244Z,15.40
2022-10-22T16:46:22.855Z,15.30
2022-10-22T16:48:58.801Z,15.20
2022-10-22T16:51:27.781Z,15.10
2022-10-22T16:53:56.578Z,15.10
2022-10-22T16:56:24.835Z,15.00
2022-10-22T16:58:54.326Z,15.00
2022-10-22T17:01:22.882Z,15.00
2022-10-22T17:03:49.917Z,15.00
2022-10-22T17:06:16.815Z,14.90
2022-10-22T17:08:43.722Z,14.80
2022-10-22T17:11:20.548Z,14.80
2022-10-22T17:13:52.594Z,14.80
2022-10-22T17:16:21.635Z,14.80
2022-10-22T17:18:49.163Z,14.70
2022-10-22T17:21:17.112Z,14.70
2022-10-22T17:23:44.225Z,14.70
2022-10-22T17:26:27.649Z,14.80
2022-10-22T17:28:58.865Z,14.80
2022-10-22T17:31:32.150Z,14.80
2022-10-22T17:33:59.970Z,14.90
2022-10-22T17:36:31.844Z,14.90
2022-10-22T17:39:04.745Z,14.90
2022-10-22T17:41:33.718Z,14.90
2022-10-22T17:44:03.215Z,14.90
2022-10-22T17:46:31.557Z,15.00
2022-10-22T17:49:08.087Z,15.00
2022-10-22T17:51:34.882Z,15.10
2022-10-22T17:54:03.547Z,15.10
2022-10-22T17:56:32.959Z,15.20
2022-10-22T17:58:59.852Z,15.20
2022-10-22T18:01:32.260Z,15.20
2022-10-22T18:04:01.445Z,15.20
2022-10-22T18:06:28.794Z,15.20
2022-10-22T18:08:55.738Z,15.20
2022-10-22T18:11:24.975Z,15.10
2022-10-22T18:13:53.098Z,15.00
2022-10-22T18:16:20.033Z,14.90
2022-10-22T18:18:53.036Z,14.80
2022-10-22T18:21:20.558Z,14.60
2022-10-22T18:23:48.059Z,14.50
2022-10-22T18:26:25.834Z,14.40
2022-10-22T18:28:54.106Z,14.30
2022-10-22T18:31:23.816Z,14.10
2022-10-22T18:33:50.914Z,14.00
2022-10-22T18:36:22.164Z,13.90
2022-10-22T18:38:53.959Z,13.90
2022-10-22T18:41:21.561Z,13.80
2022-10-22T18:43:53.055Z,13.70
2022-10-22T18:46:20.748Z,13.60
2022-10-22T18:48:48.135Z,13.50
2022-10-22T18:51:15.689Z,13.50
2022-10-22T18:53:53.610Z,13.40
2022-10-22T18:56:35.665Z,13.30
2022-10-22T18:59:02.462Z,13.20
2022-10-22T19:01:29.685Z,13.20
2022-10-22T19:03:57.187Z,13.10
2022-10-22T19:06:42.902Z,13.00
2022-10-22T19:09:17.823Z,13.00
2022-10-22T19:11:45.843Z,12.90
2022-10-22T19:14:14.630Z,12.90
2022-10-22T19:16:41.423Z,12.80
2022-10-22T19:19:08.409Z,12.70
2022-10-22T19:21:36.662Z,12.70
2022-10-22T19:24:03.552Z,12.70
2022-10-22T19:26:31.111Z,12.60
2022-10-22T19:28:59.780Z,12.60
2022-10-22T19:31:28.026Z,12.60
2022-10-22T19:33:55.382Z,12.60
2022-10-22T19:36:34.361Z,12.50
2022-10-22T19:39:01.933Z,12.50
2022-10-22T19:41:31.929Z,12.50
2022-10-22T19:44:02.030Z,12.50
2022-10-22T19:46:31.699Z,12.50
2022-10-22T19:48:58.889Z,12.40
2022-10-22T19:51:29.676Z,12.40
2022-10-22T19:53:59.376Z,12.40
2022-10-22T19:56:27.239Z,12.40
2022-10-22T19:58:54.533Z,12.30
2022-10-22T20:01:21.800Z,12.20
2022-10-22T20:03:48.875Z,12.20
2022-10-22T20:06:17.571Z,12.20
2022-10-22T20:08:49.967Z,12.20
2022-10-22T20:11:22.525Z,12.20
2022-10-22T20:13:52.179Z,12.10
2022-10-22T20:16:23.142Z,12.10
2022-10-22T20:18:51.052Z,12.10
2022-10-22T20:21:21.910Z,12.00
2022-10-22T20:23:53.125Z,12.00
2022-10-22T20:26:20.896Z,11.90
2022-10-22T20:28:47.679Z,11.90
2022-10-22T20:31:18.944Z,11.80
2022-10-22T20:33:46.816Z,11.80
2022-10-22T20:36:20.319Z,11.80
2022-10-22T20:38:48.243Z,11.70
2022-10-22T20:41:22.921Z,11.70
2022-10-22T20:43:51.413Z,11.60
2022-10-22T20:46:24.732Z,11.60
2022-10-22T20:48:53.152Z,11.60
2022-10-22T20:51:20.533Z,11.60
2022-10-22T20:53:47.509Z,11.50
2022-10-22T20:56:14.693Z,11.50
2022-10-22T20:58:48.429Z,11.40
2022-10-22T21:01:27.106Z,11.40
2022-10-22T21:03:55.274Z,11.40
2022-10-22T21:06:29.607Z,11.30
2022-10-22T21:08:56.396Z,11.40
2022-10-22T21:11:31.075Z,11.40
2022-10-22T21:14:00.558Z,11.30
2022-10-22T21:16:33.984Z,11.30
2022-10-22T21:19:00.858Z,11.30
2022-10-22T21:21:36.097Z,11.30
2022-10-22T21:24:09.943Z,11.20
2022-10-22T21:26:43.646Z,11.20
2022-10-22T21:29:12.086Z,11.20
2022-10-22T21:31:45.226Z,11.20
2022-10-22T21:34:18.766Z,11.20
2022-10-22T21:39:17.085Z,11.20
2022-10-22T21:41:43.840Z,11.20
2022-10-22T21:44:10.884Z,11.20
2022-10-22T21:46:40.429Z,11.20
2022-10-22T21:49:07.288Z,11.20
2022-10-22T21:51:45.436Z,11.20
2022-10-22T21:54:12.746Z,11.10
2022-10-22T21:56:40.435Z,11.10
2022-10-22T21:59:20.122Z,11.10
2022-10-22T22:01:50.793Z,11.10
2022-10-22T22:04:17.912Z,11.10
2022-10-22T22:06:44.694Z,11.10
2022-10-22T22:09:11.832Z,11.10
2022-10-22T22:11:52.665Z,11.10
2022-10-22T22:14:25.838Z,11.10
2022-10-22T22:16:52.678Z,11.10
2022-10-22T22:19:19.428Z,11.00
2022-10-22T22:21:46.178Z,11.00
2022-10-22T22:24:26.196Z,11.00
2022-10-22T22:26:53.048Z,11.00
2022-10-22T22:29:19.779Z,11.00
2022-10-22T22:31:46.582Z,11.10
2022-10-22T22:34:17.164Z,11.10
2022-10-22T22:36:46.141Z,11.00
2022-10-22T22:39:15.657Z,11.00
2022-10-22T22:41:43.012Z,10.90
2022-10-22T22:44:09.935Z,10.90
2022-10-22T22:46:37.034Z,10.90
2022-10-22T22:49:04.104Z,10.90
2022-10-22T22:51:31.261Z,10.80
2022-10-22T22:54:00.087Z,10.90
2022-10-22T22:56:29.884Z,10.90
2022-10-22T22:58:56.945Z,11.00
2022-10-22T23:01:25.133Z,11.00
2022-10-22T23:03:57.941Z,11.00
2022-10-22T23:06:27.234Z,11.00
2022-10-22T23:09:08.368Z,11.10
2022-10-22T23:11:43.642Z,11.10
2022-10-22T23:14:16.380Z,11.10
2022-10-22T23:16:46.206Z,11.10
2022-10-22T23:19:15.264Z,11.20
2022-10-22T23:21:46.131Z,11.20
2022-10-22T23:24:16.433Z,11.20
2022-10-22T23:26:45.704Z,11.20
2022-10-22T23:29:21.042Z,11.30
2022-10-22T23:31:48.965Z,11.30
2022-10-22T23:34:25.654Z,11.40
2022-10-22T23:36:53.418Z,11.40
2022-10-22T23:39:22.913Z,11.40
2022-10-22T23:41:50.235Z,11.50
2022-10-22T23:44:17.023Z,11.50
2022-10-22T23:46:43.916Z,11.50
2022-10-22T23:49:11.759Z,11.50
2022-10-22T23:51:39.519Z,11.50
2022-10-22T23:54:10.583Z,11.50
2022-10-22T23:56:37.610Z,11.50
2022-10-22T23:59:05.128Z,11.50
